createdAt,value
2022-09-29T00:00:13.298Z,96059.75
2022-09-29T00:02:25.358Z,96064.66
2022-09-29T00:04:34.517Z,96058.31
2022-09-29T00:06:43.155Z,96061.16
2022-09-29T00:08:51.612Z,96054.69
2022-09-29T00:11:00.488Z,96059.75
2022-09-29T00:13:08.775Z,96059.75
2022-09-29T00:15:17.188Z,96053.28
2022-09-29T00:17:28.339Z,96052.19
2022-09-29T00:19:36.939Z,96056.88
2022-09-29T00:21:45.293Z,96051.97
2022-09-29T00:23:55.600Z,96056.63
2022-09-29T00:26:13.064Z,96051.72
2022-09-29T00:28:21.585Z,96052.41
2022-09-29T00:30:30.538Z,96053.03
2022-09-29T00:32:41.254Z,96051.38
2022-09-29T00:34:51.308Z,96052.47
2022-09-29T00:36:59.756Z,96055.94
2022-09-29T00:39:07.962Z,96050.16
2022-09-29T00:41:20.186Z,96052.81
2022-09-29T00:43:49.523Z,96045.59
2022-09-29T00:45:58.459Z,96056.28
2022-09-29T00:48:18.139Z,96046.78
2022-09-29T00:50:32.157Z,96051.13
2022-09-29T00:52:44.159Z,96054.63
2022-09-29T00:54:56.529Z,96049.56
2022-09-29T00:57:06.099Z,96052.31
2022-09-29T00:59:19.258Z,96044.75
2022-09-29T01:01:31.834Z,96048.50
2022-09-29T01:03:48.863Z,96045.47
2022-09-29T01:06:01.078Z,96051.59
2022-09-29T01:08:18.094Z,96053.03
2022-09-29T01:10:27.938Z,96051.97
2022-09-29T01:12:37.761Z,96059.16
2022-09-29T01:14:47.535Z,96048.94
2022-09-29T01:16:56.115Z,96045.59
2022-09-29T01:19:11.309Z,96048.25
2022-09-29T01:21:29.069Z,96043.91
2022-09-29T01:24:06.957Z,96038.38
2022-09-29T01:26:41.148Z,96044.41
2022-09-29T01:29:28.134Z,96047.16
2022-09-29T01:31:47.863Z,96046.78
2022-09-29T01:34:04.279Z,96058.69
2022-09-29T01:36:21.273Z,96049.06
2022-09-29T01:38:52.149Z,96049.56
2022-09-29T01:41:08.654Z,96047.88
2022-09-29T01:43:22.595Z,96041.75
2022-09-29T01:45:36.444Z,96044.88
2022-09-29T01:47:51.623Z,96044.16
2022-09-29T01:50:06.494Z,96046.31
2022-09-29T01:52:22.321Z,96047.75
2022-09-29T01:54:37.998Z,96039.69
2022-09-29T01:57:04.112Z,96049.34
2022-09-29T01:59:20.372Z,96054.72
2022-09-29T02:01:34.665Z,96049.34
2022-09-29T02:03:52.010Z,96050.41
2022-09-29T02:06:03.300Z,96055.31
2022-09-29T02:08:18.114Z,96065.06
2022-09-29T02:10:31.442Z,96062.53
2022-09-29T02:12:43.842Z,96061.59
2022-09-29T02:14:53.953Z,96063.50
2022-09-29T02:17:10.051Z,96059.28
2022-09-29T02:19:28.037Z,96062.78
2022-09-29T02:21:36.147Z,96068.53
2022-09-29T02:23:44.640Z,96073.97
2022-09-29T02:25:54.893Z,96066.16
2022-09-29T02:28:04.237Z,96058.22
2022-09-29T02:30:14.273Z,96059.44
2022-09-29T02:32:23.112Z,96059.78
2022-09-29T02:34:41.497Z,96064.09
2022-09-29T02:37:00.954Z,96069.72
2022-09-29T02:39:20.489Z,96061.72
2022-09-29T02:41:40.127Z,96063.13
2022-09-29T02:44:04.044Z,96057.63
2022-09-29T02:46:23.821Z,96063.63
2022-09-29T02:48:59.161Z,96068.66
2022-09-29T02:51:21.524Z,96062.06
2022-09-29T02:53:44.520Z,96059.91
2022-09-29T02:56:03.933Z,96059.44
2022-09-29T02:58:19.764Z,96066.16
2022-09-29T03:00:30.804Z,96058.22
2022-09-29T03:02:40.376Z,96061.34
2022-09-29T03:04:48.204Z,96059.78
2022-09-29T03:07:02.064Z,96060.13
2022-09-29T03:09:10.467Z,96061.22
2022-09-29T03:11:18.756Z,96056.28
2022-09-29T03:13:27.076Z,96052.47
2022-09-29T03:15:35.484Z,96049.56
2022-09-29T03:17:45.633Z,96047.66
2022-09-29T03:19:54.037Z,96046.22
2022-09-29T03:22:06.831Z,96049.19
2022-09-29T03:24:14.973Z,96040.31
2022-09-29T03:26:27.394Z,96035.16
2022-09-29T03:28:35.773Z,96034.78
2022-09-29T03:30:45.187Z,96036.69
2022-09-29T03:32:54.001Z,96045.25
2022-09-29T03:35:03.127Z,96046.06
2022-09-29T03:37:14.338Z,96035.97
2022-09-29T03:39:22.306Z,96036.66
2022-09-29T03:41:30.789Z,96034.25
2022-09-29T03:43:38.910Z,96026.75
2022-09-29T03:45:52.060Z,96015.47
2022-09-29T03:48:00.824Z,96009.72
2022-09-29T03:50:11.215Z,96008.88
2022-09-29T03:52:22.170Z,95996.13
2022-09-29T03:54:32.482Z,96007.06
2022-09-29T03:56:41.590Z,96000.41
2022-09-29T03:58:50.411Z,96011.34
2022-09-29T04:01:00.526Z,96002.66
2022-09-29T04:03:08.683Z,95997.16
2022-09-29T04:05:18.522Z,96001.81
2022-09-29T04:07:29.240Z,96003.97
2022-09-29T04:09:37.700Z,95994.25
2022-09-29T04:11:47.844Z,96000.47
2022-09-29T04:13:55.979Z,95994.53
2022-09-29T04:16:05.109Z,96001.97
2022-09-29T04:18:13.393Z,95993.09
2022-09-29T04:20:22.012Z,95994.56
2022-09-29T04:22:34.951Z,95994.59
2022-09-29T04:24:43.427Z,96005.16
2022-09-29T04:26:52.075Z,96001.53
2022-09-29T04:29:00.329Z,96003.06
2022-09-29T04:31:09.359Z,96008.34
2022-09-29T04:33:20.056Z,96011.84
2022-09-29T04:35:28.341Z,96009.63
2022-09-29T04:37:39.265Z,96011.78
2022-09-29T04:39:47.727Z,96007.47
2022-09-29T04:41:56.299Z,96007.75
2022-09-29T04:44:06.392Z,96007.97
2022-09-29T04:46:16.903Z,96013.38
2022-09-29T04:48:25.568Z,96019.31
2022-09-29T04:50:34.309Z,96023.50
2022-09-29T04:52:46.181Z,96026.47
2022-09-29T04:54:54.495Z,96028.72
2022-09-29T04:57:02.827Z,96017.22
2022-09-29T04:59:12.386Z,96019.16
2022-09-29T05:01:20.835Z,96019.00
2022-09-29T05:03:29.325Z,96024.50
2022-09-29T05:05:37.513Z,96019.63
2022-09-29T05:07:50.371Z,96022.00
2022-09-29T05:09:59.124Z,96004.94
2022-09-29T05:12:09.697Z,95996.28
2022-09-29T05:14:18.096Z,96001.75
2022-09-29T05:16:26.507Z,96000.28
2022-09-29T05:18:35.235Z,96000.72
2022-09-29T05:20:59.180Z,95999.16
2022-09-29T05:23:15.371Z,95998.81
2022-09-29T05:25:24.724Z,96005.16
2022-09-29T05:27:34.331Z,95997.06
2022-09-29T05:29:47.295Z,95997.56
2022-09-29T05:31:55.737Z,96002.88
2022-09-29T05:34:03.852Z,96002.41
2022-09-29T05:36:13.379Z,95995.44
2022-09-29T05:38:24.111Z,95996.75
2022-09-29T05:40:32.718Z,96001.66
2022-09-29T05:42:41.342Z,96002.03
2022-09-29T05:44:49.905Z,95999.00
2022-09-29T05:46:58.132Z,95993.88
2022-09-29T05:49:06.416Z,95996.63
2022-09-29T05:51:22.449Z,96009.72
2022-09-29T05:53:34.138Z,96011.63
2022-09-29T05:55:42.688Z,96020.16
2022-09-29T05:57:52.626Z,96020.69
2022-09-29T06:00:01.334Z,96019.38
2022-09-29T06:02:20.520Z,96030.91
2022-09-29T06:04:29.051Z,96030.06
2022-09-29T06:06:40.430Z,96035.59
2022-09-29T06:08:53.822Z,96037.38
2022-09-29T06:11:06.955Z,96035.94
2022-09-29T06:13:15.232Z,96043.91
2022-09-29T06:15:23.664Z,96037.31
2022-09-29T06:17:34.818Z,96056.50
2022-09-29T06:19:44.856Z,96058.19
2022-09-29T06:21:53.377Z,96065.75
2022-09-29T06:24:04.615Z,96074.66
2022-09-29T06:26:19.006Z,96075.91
2022-09-29T06:28:31.632Z,96078.53
2022-09-29T06:30:39.999Z,96073.13
2022-09-29T06:32:48.644Z,96084.78
2022-09-29T06:35:09.012Z,96082.00
2022-09-29T06:37:31.553Z,96104.47
2022-09-29T06:39:44.038Z,96112.34
2022-09-29T06:41:54.580Z,96119.75
2022-09-29T06:44:02.988Z,96135.09
2022-09-29T06:46:13.120Z,96137.09
2022-09-29T06:48:21.560Z,96136.13
2022-09-29T06:50:30.732Z,96143.25
2022-09-29T06:52:38.994Z,96147.84
2022-09-29T06:54:49.761Z,96152.41
2022-09-29T06:56:58.381Z,96149.06
2022-09-29T06:59:06.348Z,96158.31
2022-09-29T07:01:15.147Z,96153.34
2022-09-29T07:03:23.789Z,96156.94
2022-09-29T07:05:31.805Z,96159.94
2022-09-29T07:07:40.553Z,96162.13
2022-09-29T07:09:53.938Z,96167.94
2022-09-29T07:12:02.079Z,96160.69
2022-09-29T07:14:18.244Z,96168.13
2022-09-29T07:16:27.306Z,96160.44
2022-09-29T07:18:43.170Z,96155.91
2022-09-29T07:20:51.622Z,96164.06
2022-09-29T07:22:59.832Z,96165.00
2022-09-29T07:25:23.023Z,96168.88
2022-09-29T07:27:40.225Z,96173.34
2022-09-29T07:30:00.080Z,96174.88
2022-09-29T07:32:23.906Z,96173.59
2022-09-29T07:34:34.779Z,96176.25
2022-09-29T07:36:44.011Z,96180.16
2022-09-29T07:38:54.659Z,96184.50
2022-09-29T07:41:10.842Z,96179.25
2022-09-29T07:43:19.001Z,96184.16
2022-09-29T07:45:27.794Z,96181.13
2022-09-29T07:47:36.246Z,96175.28
2022-09-29T07:49:45.286Z,96176.16
2022-09-29T07:51:53.509Z,96175.19
2022-09-29T07:54:08.163Z,96186.41
2022-09-29T07:56:21.069Z,96193.84
2022-09-29T07:58:29.318Z,96190.06
2022-09-29T08:00:37.797Z,96192.28
2022-09-29T08:02:46.453Z,96187.13
2022-09-29T08:05:00.013Z,96180.47
2022-09-29T08:07:09.391Z,96188.50
2022-09-29T08:09:19.018Z,96193.81
2022-09-29T08:11:32.406Z,96193.22
2022-09-29T08:13:42.012Z,96189.00
2022-09-29T08:15:50.224Z,96195.44
2022-09-29T08:17:59.356Z,96193.91
2022-09-29T08:20:08.568Z,96196.28
2022-09-29T08:22:16.706Z,96204.97
2022-09-29T08:24:28.479Z,96200.34
2022-09-29T08:26:44.217Z,96204.41
2022-09-29T08:29:05.624Z,96202.00
2022-09-29T08:31:20.000Z,96200.84
2022-09-29T08:33:28.787Z,96207.81
2022-09-29T08:35:36.930Z,96207.09
2022-09-29T08:37:45.304Z,96212.78
2022-09-29T08:39:54.048Z,96212.66
2022-09-29T08:42:11.314Z,96210.69
2022-09-29T08:44:37.275Z,96207.34
2022-09-29T08:47:04.744Z,96216.59
2022-09-29T08:49:31.682Z,96222.44
2022-09-29T08:51:48.848Z,96220.19
2022-09-29T08:54:03.815Z,96228.34
2022-09-29T08:56:18.520Z,96230.41
2022-09-29T08:58:29.309Z,96229.59
2022-09-29T09:00:43.192Z,96232.97
2022-09-29T09:03:10.579Z,96229.38
2022-09-29T09:05:39.767Z,96230.81
2022-09-29T09:08:00.559Z,96231.13
2022-09-29T09:10:25.024Z,96227.34
2022-09-29T09:12:47.648Z,96232.31
2022-09-29T09:15:11.304Z,96226.81
2022-09-29T09:17:31.971Z,96232.66
2022-09-29T09:19:59.722Z,96235.78
2022-09-29T09:22:24.204Z,96234.22
2022-09-29T09:24:45.739Z,96243.56
2022-09-29T09:26:54.022Z,96249.09
2022-09-29T09:29:05.916Z,96246.75
2022-09-29T09:31:23.568Z,96253.38
2022-09-29T09:33:38.890Z,96252.25
2022-09-29T09:35:58.469Z,96263.78
2022-09-29T09:38:14.186Z,96268.75
2022-09-29T09:40:27.254Z,96262.41
2022-09-29T09:42:40.216Z,96259.47
2022-09-29T09:44:56.743Z,96262.97
2022-09-29T09:47:27.642Z,96263.06
2022-09-29T09:49:40.954Z,96261.88
2022-09-29T09:51:57.235Z,96267.75
2022-09-29T09:54:13.079Z,96268.22
2022-09-29T09:56:36.204Z,96259.94
2022-09-29T09:59:08.556Z,96255.16
2022-09-29T10:01:16.413Z,96256.94
2022-09-29T10:03:27.449Z,96268.53
2022-09-29T10:05:39.697Z,96263.06
2022-09-29T10:07:48.985Z,96265.28
2022-09-29T10:09:57.362Z,96265.97
2022-09-29T10:12:06.297Z,96269.63
2022-09-29T10:14:18.788Z,96268.47
2022-09-29T10:16:32.680Z,96261.53
2022-09-29T10:18:45.545Z,96264.78
2022-09-29T10:20:53.475Z,96275.66
2022-09-29T10:23:22.374Z,96265.47
2022-09-29T10:25:30.260Z,96265.94
2022-09-29T10:27:43.038Z,96271.00
2022-09-29T10:29:53.118Z,96257.72
2022-09-29T10:32:04.181Z,96265.44
2022-09-29T10:34:20.439Z,96263.38
2022-09-29T10:36:33.997Z,96254.50
2022-09-29T10:38:42.555Z,96253.28
2022-09-29T10:40:59.148Z,96262.66
2022-09-29T10:43:27.111Z,96266.91
2022-09-29T10:45:49.830Z,96263.13
2022-09-29T10:48:13.223Z,96276.53
2022-09-29T10:50:25.826Z,96266.63
2022-09-29T10:52:33.984Z,96268.25
2022-09-29T10:54:57.943Z,96265.56
2022-09-29T10:57:17.175Z,96271.91
2022-09-29T10:59:27.134Z,96266.41
2022-09-29T11:01:39.410Z,96264.44
2022-09-29T11:03:53.398Z,96278.81
2022-09-29T11:06:09.549Z,96260.63
2022-09-29T11:08:19.787Z,96260.38
2022-09-29T11:10:32.535Z,96269.88
2022-09-29T11:12:41.034Z,96265.84
2022-09-29T11:14:49.534Z,96264.97
2022-09-29T11:17:00.557Z,96281.56
2022-09-29T11:19:12.441Z,96268.06
2022-09-29T11:21:52.877Z,96274.91
2022-09-29T11:24:10.946Z,96276.16
2022-09-29T11:26:34.622Z,96267.47
2022-09-29T11:29:07.924Z,96277.84
2022-09-29T11:31:30.657Z,96285.97
2022-09-29T11:33:50.782Z,96314.81
2022-09-29T11:36:07.610Z,96302.97
2022-09-29T11:38:50.815Z,96291.66
2022-09-29T11:41:11.456Z,96277.88
2022-09-29T11:43:45.215Z,96274.78
2022-09-29T11:46:03.511Z,96270.56
2022-09-29T11:48:39.738Z,96274.88
2022-09-29T11:50:58.726Z,96269.06
2022-09-29T11:53:28.659Z,96294.66
2022-09-29T11:55:50.218Z,96288.88
2022-09-29T11:58:11.745Z,96298.94
2022-09-29T12:00:22.813Z,96281.34
2022-09-29T12:03:06.034Z,96290.38
2022-09-29T12:05:22.458Z,96283.41
2022-09-29T12:07:45.251Z,96283.38
2022-09-29T12:10:25.562Z,96279.03
2022-09-29T12:12:45.446Z,96292.09
2022-09-29T12:15:13.776Z,96292.78
2022-09-29T12:17:24.285Z,96276.34
2022-09-29T12:19:36.563Z,96300.66
2022-09-29T12:21:50.566Z,96289.25
2022-09-29T12:24:00.977Z,96281.22
2022-09-29T12:26:12.242Z,96298.63
2022-09-29T12:28:27.632Z,96297.31
2022-09-29T12:30:44.129Z,96292.94
2022-09-29T12:32:58.403Z,96288.38
2022-09-29T12:35:14.946Z,96304.34
2022-09-29T12:37:30.181Z,96287.31
2022-09-29T12:39:44.925Z,96296.72
2022-09-29T12:41:56.619Z,96298.53
2022-09-29T12:44:15.518Z,96308.03
2022-09-29T12:46:35.906Z,96319.00
2022-09-29T12:48:54.734Z,96304.00
2022-09-29T12:51:10.472Z,96292.75
2022-09-29T12:53:23.710Z,96296.84
2022-09-29T12:55:44.518Z,96294.41
2022-09-29T12:57:57.938Z,96287.97
2022-09-29T13:00:10.348Z,96299.03
2022-09-29T13:02:47.473Z,96294.28
2022-09-29T13:05:09.964Z,96289.09
2022-09-29T13:08:05.817Z,96299.72
2022-09-29T13:10:25.734Z,96304.13
2022-09-29T13:12:55.446Z,96286.94
2022-09-29T13:15:20.316Z,96303.50
2022-09-29T13:17:48.428Z,96310.91
2022-09-29T13:20:17.896Z,96323.03
2022-09-29T13:22:50.552Z,96318.56
2022-09-29T13:25:07.852Z,96308.47
2022-09-29T13:27:30.540Z,96304.75
2022-09-29T13:29:48.557Z,96291.78
2022-09-29T13:31:59.601Z,96302.19
2022-09-29T13:34:20.951Z,96311.66
2022-09-29T13:36:36.419Z,96316.88
2022-09-29T13:38:55.376Z,96305.47
2022-09-29T13:41:16.835Z,96303.16
2022-09-29T13:43:40.663Z,96300.47
2022-09-29T13:45:48.608Z,96304.50
2022-09-29T13:47:58.460Z,96296.25
2022-09-29T13:50:36.353Z,96305.78
2022-09-29T13:52:48.853Z,96310.81
2022-09-29T13:54:56.700Z,96314.00
2022-09-29T13:57:10.808Z,96330.28
2022-09-29T13:59:24.351Z,96332.84
2022-09-29T14:01:38.504Z,96319.09
2022-09-29T14:03:48.681Z,96315.38
2022-09-29T14:08:54.565Z,96324.25
2022-09-29T14:11:09.584Z,96312.53
2022-09-29T14:13:27.285Z,96312.22
2022-09-29T14:15:40.724Z,96322.78
2022-09-29T14:17:54.273Z,96318.06
2022-09-29T14:20:09.209Z,96337.34
2022-09-29T14:22:53.250Z,96339.69
2022-09-29T14:25:31.137Z,96327.75
2022-09-29T14:27:45.371Z,96315.16
2022-09-29T14:29:56.471Z,96308.25
2022-09-29T14:32:06.166Z,96325.22
2022-09-29T14:34:19.350Z,96318.97
2022-09-29T14:36:29.548Z,96310.28
2022-09-29T14:38:42.769Z,96323.59
2022-09-29T14:41:02.135Z,96323.81
2022-09-29T14:43:16.097Z,96321.34
2022-09-29T14:45:48.515Z,96319.81
2022-09-29T14:48:16.421Z,96324.31
2022-09-29T14:50:54.394Z,96311.94
2022-09-29T14:53:20.092Z,96329.34
2022-09-29T14:55:38.964Z,96333.19
2022-09-29T14:58:05.415Z,96333.47
2022-09-29T15:00:19.467Z,96326.22
2022-09-29T15:02:30.957Z,96324.81
2022-09-29T15:04:42.007Z,96318.28
2022-09-29T15:06:52.881Z,96321.91
2022-09-29T15:09:03.054Z,96315.84
2022-09-29T15:11:38.170Z,96315.47
2022-09-29T15:13:48.991Z,96314.78
2022-09-29T15:16:03.556Z,96322.38
2022-09-29T15:18:28.410Z,96325.22
2022-09-29T15:20:51.567Z,96326.47
2022-09-29T15:23:14.761Z,96320.66
2022-09-29T15:25:32.608Z,96325.44
2022-09-29T15:27:42.978Z,96322.34
2022-09-29T15:29:58.881Z,96329.50
2022-09-29T15:32:08.517Z,96323.72
2022-09-29T15:34:21.372Z,96330.72
2022-09-29T15:36:37.398Z,96328.13
2022-09-29T15:38:45.650Z,96329.63
2022-09-29T15:40:56.889Z,96326.38
2022-09-29T15:43:07.791Z,96331.94
2022-09-29T15:45:23.199Z,96327.81
2022-09-29T15:47:37.847Z,96341.78
2022-09-29T15:49:54.582Z,96338.81
2022-09-29T15:52:05.667Z,96341.47
2022-09-29T15:54:15.612Z,96346.88
2022-09-29T15:56:24.269Z,96346.75
2022-09-29T15:58:48.204Z,96351.38
2022-09-29T16:01:07.081Z,96351.38
2022-09-29T16:03:24.403Z,96345.09
2022-09-29T16:05:35.450Z,96347.19
2022-09-29T16:07:52.154Z,96351.53
2022-09-29T16:10:12.604Z,96358.88
2022-09-29T16:12:23.927Z,96353.13
2022-09-29T16:14:32.547Z,96348.69
2022-09-29T16:16:45.896Z,96355.66
2022-09-29T16:18:56.128Z,96358.22
2022-09-29T16:21:10.843Z,96358.34
2022-09-29T16:23:24.395Z,96354.56
2022-09-29T16:25:34.734Z,96362.22
2022-09-29T16:27:57.924Z,96365.66
2022-09-29T16:30:23.214Z,96364.69
2022-09-29T16:32:43.763Z,96364.84
2022-09-29T16:34:52.115Z,96363.16
2022-09-29T16:37:02.295Z,96364.28
2022-09-29T16:39:20.141Z,96373.84
2022-09-29T16:41:34.362Z,96374.00
2022-09-29T16:43:46.263Z,96376.53
2022-09-29T16:45:55.624Z,96380.44
2022-09-29T16:48:12.246Z,96384.09
2022-09-29T16:50:23.195Z,96390.44
2022-09-29T16:52:35.414Z,96388.19
2022-09-29T16:54:46.671Z,96396.31
2022-09-29T16:57:21.734Z,96392.66
2022-09-29T16:59:30.055Z,96391.13
2022-09-29T17:01:38.441Z,96389.47
2022-09-29T17:03:49.114Z,96403.75
2022-09-29T17:05:57.426Z,96390.69
2022-09-29T17:10:36.574Z,96394.34
2022-09-29T17:12:45.080Z,96395.72
2022-09-29T17:14:53.537Z,96395.03
2022-09-29T17:17:01.762Z,96398.91
2022-09-29T17:19:14.077Z,96393.16
2022-09-29T17:21:23.156Z,96403.47
2022-09-29T17:23:32.078Z,96407.22
2022-09-29T17:25:43.120Z,96406.00
2022-09-29T17:28:03.894Z,96409.91
2022-09-29T17:30:17.818Z,96422.72
2022-09-29T17:32:28.724Z,96421.44
2022-09-29T17:34:39.330Z,96423.00
2022-09-29T17:36:48.275Z,96429.81
2022-09-29T17:38:56.565Z,96421.78
2022-09-29T17:41:06.353Z,96435.22
2022-09-29T17:43:14.784Z,96430.13
2022-09-29T17:45:24.165Z,96443.09
2022-09-29T17:47:36.988Z,96442.16
2022-09-29T17:49:50.994Z,96447.22
2022-09-29T17:51:59.504Z,96446.91
2022-09-29T17:54:08.052Z,96458.34
2022-09-29T17:56:26.069Z,96455.94
2022-09-29T17:58:37.491Z,96457.63
2022-09-29T18:00:47.219Z,96460.19
2022-09-29T18:02:57.427Z,96461.97
2022-09-29T18:05:09.742Z,96461.16
2022-09-29T18:07:18.344Z,96465.75
2022-09-29T18:09:26.502Z,96471.69
2022-09-29T18:11:35.042Z,96464.56
2022-09-29T18:13:43.148Z,96472.78
2022-09-29T18:15:51.561Z,96474.72
2022-09-29T18:18:01.990Z,96477.25
2022-09-29T18:20:20.625Z,96474.34
2022-09-29T18:22:28.754Z,96476.72
2022-09-29T18:24:37.610Z,96471.84
2022-09-29T18:26:49.297Z,96475.06
2022-09-29T18:28:59.249Z,96480.13
2022-09-29T18:31:12.612Z,96472.28
2022-09-29T18:33:22.722Z,96481.56
2022-09-29T18:35:35.469Z,96481.97
2022-09-29T18:37:43.677Z,96482.22
2022-09-29T18:39:52.061Z,96484.63
2022-09-29T18:42:00.310Z,96491.00
2022-09-29T18:44:16.970Z,96491.72
2022-09-29T18:46:26.033Z,96491.16
2022-09-29T18:48:34.331Z,96494.84
2022-09-29T18:50:49.208Z,96500.16
2022-09-29T18:52:59.715Z,96495.59
2022-09-29T18:55:11.221Z,96501.47
2022-09-29T18:57:20.087Z,96497.59
2022-09-29T18:59:28.683Z,96500.84
2022-09-29T19:01:37.322Z,96497.84
2022-09-29T19:03:45.685Z,96499.75
2022-09-29T19:05:57.661Z,96501.78
2022-09-29T19:08:08.205Z,96510.59
2022-09-29T19:10:17.994Z,96509.75
2022-09-29T19:12:27.686Z,96502.88
2022-09-29T19:14:36.504Z,96511.56
2022-09-29T19:16:46.110Z,96514.38
2022-09-29T19:18:53.971Z,96517.84
2022-09-29T19:21:05.448Z,96516.75
2022-09-29T19:23:13.553Z,96510.84
2022-09-29T19:25:24.363Z,96513.75
2022-09-29T19:27:32.703Z,96523.28
2022-09-29T19:29:40.819Z,96530.72
2022-09-29T19:31:49.856Z,96528.47
2022-09-29T19:34:02.362Z,96529.81
2022-09-29T19:36:18.356Z,96527.41
2022-09-29T19:38:27.213Z,96528.63
2022-09-29T19:40:41.166Z,96527.66
2022-09-29T19:42:49.366Z,96531.41
2022-09-29T19:44:57.770Z,96525.97
2022-09-29T19:47:05.821Z,96528.16
2022-09-29T19:49:14.527Z,96534.44
2022-09-29T19:51:37.679Z,96539.59
2022-09-29T19:53:48.901Z,96542.38
2022-09-29T19:55:58.797Z,96534.44
2022-09-29T19:58:07.310Z,96539.50
2022-09-29T20:00:18.626Z,96548.19
2022-09-29T20:02:27.124Z,96542.66
2022-09-29T20:04:37.870Z,96543.38
2022-09-29T20:06:49.332Z,96539.31
2022-09-29T20:08:58.064Z,96550.97
2022-09-29T20:11:11.717Z,96547.00
2022-09-29T20:13:20.022Z,96547.72
2022-09-29T20:15:28.824Z,96551.47
2022-09-29T20:17:37.277Z,96549.19
2022-09-29T20:19:45.820Z,96550.38
2022-09-29T20:21:57.692Z,96549.91
2022-09-29T20:24:06.249Z,96559.66
2022-09-29T20:26:14.580Z,96558.94
2022-09-29T20:28:23.792Z,96554.38
2022-09-29T20:30:32.511Z,96564.63
2022-09-29T20:32:41.687Z,96559.19
2022-09-29T20:34:50.258Z,96566.47
2022-09-29T20:37:01.766Z,96566.81
2022-09-29T20:39:10.419Z,96553.34
2022-09-29T20:41:19.446Z,96561.50
2022-09-29T20:43:27.802Z,96564.28
2022-09-29T20:45:36.197Z,96565.59
2022-09-29T20:47:44.452Z,96564.97
2022-09-29T20:49:54.445Z,96572.34
2022-09-29T20:52:05.739Z,96577.13
2022-09-29T20:54:15.569Z,96575.31
2022-09-29T20:56:30.425Z,96578.19
2022-09-29T20:58:39.322Z,96581.44
2022-09-29T21:00:48.053Z,96583.56
2022-09-29T21:02:57.402Z,96583.44
2022-09-29T21:05:05.926Z,96585.00
2022-09-29T21:07:29.145Z,96589.47
2022-09-29T21:09:37.655Z,96586.69
2022-09-29T21:11:47.443Z,96593.25
2022-09-29T21:13:58.195Z,96588.22
2022-09-29T21:16:07.292Z,96589.56
2022-09-29T21:18:15.667Z,96593.25
2022-09-29T21:20:24.222Z,96594.47
2022-09-29T21:22:35.525Z,96590.00
2022-09-29T21:24:44.265Z,96593.16
2022-09-29T21:26:52.701Z,96595.91
2022-09-29T21:29:02.595Z,96598.03
2022-09-29T21:31:13.642Z,96596.38
2022-09-29T21:33:21.947Z,96604.09
2022-09-29T21:35:33.229Z,96601.44
2022-09-29T21:37:44.119Z,96606.44
2022-09-29T21:39:52.611Z,96607.19
2022-09-29T21:42:01.090Z,96608.59
2022-09-29T21:44:13.258Z,96605.75
2022-09-29T21:46:24.036Z,96606.72
2022-09-29T21:48:33.506Z,96608.78
2022-09-29T21:50:41.756Z,96614.47
2022-09-29T21:52:55.318Z,96608.47
2022-09-29T21:55:03.636Z,96606.91
2022-09-29T21:57:12.205Z,96602.41
2022-09-29T21:59:22.897Z,96606.00
2022-09-29T22:01:31.906Z,96613.94
2022-09-29T22:03:41.904Z,96614.59
2022-09-29T22:05:50.325Z,96616.00
2022-09-29T22:08:01.066Z,96609.56
2022-09-29T22:10:10.554Z,96610.22
2022-09-29T22:12:19.277Z,96601.88
2022-09-29T22:14:27.676Z,96610.03
2022-09-29T22:16:40.294Z,96607.16
2022-09-29T22:19:05.865Z,96613.19
2022-09-29T22:21:19.233Z,96608.00
2022-09-29T22:23:31.417Z,96606.81
2022-09-29T22:25:46.363Z,96613.72
2022-09-29T22:27:54.641Z,96609.50
2022-09-29T22:30:03.168Z,96608.13
2022-09-29T22:32:11.553Z,96603.88
2022-09-29T22:34:20.025Z,96598.72
2022-09-29T22:36:30.409Z,96605.28
2022-09-29T22:38:43.727Z,96604.44
2022-09-29T22:40:52.240Z,96607.63
2022-09-29T22:43:00.538Z,96608.81
2022-09-29T22:45:10.372Z,96607.00
2022-09-29T22:47:18.685Z,96604.66
2022-09-29T22:49:27.031Z,96606.44
2022-09-29T22:51:35.507Z,96591.75
2022-09-29T22:53:46.616Z,96596.63
2022-09-29T22:55:55.064Z,96602.13
2022-09-29T22:58:03.291Z,96593.16
2022-09-29T23:00:13.598Z,96601.41
2022-09-29T23:02:22.336Z,96596.44
2022-09-29T23:04:30.956Z,96590.75
2022-09-29T23:06:39.279Z,96598.44
2022-09-29T23:08:50.547Z,96598.44
2022-09-29T23:10:59.131Z,96603.22
2022-09-29T23:13:08.987Z,96607.31
2022-09-29T23:15:17.759Z,96609.88
2022-09-29T23:17:29.947Z,96608.69
2022-09-29T23:19:38.220Z,96609.13
2022-09-29T23:21:46.772Z,96611.13
2022-09-29T23:23:59.909Z,96609.34
2022-09-29T23:26:08.826Z,96610.38
2022-09-29T23:28:17.145Z,96614.41
2022-09-29T23:30:25.417Z,96612.50
2022-09-29T23:32:33.642Z,96615.69
2022-09-29T23:34:41.967Z,96605.97
2022-09-29T23:36:50.365Z,96603.31
2022-09-29T23:39:11.231Z,96604.47
2022-09-29T23:41:19.963Z,96609.88
2022-09-29T23:43:28.395Z,96609.44
2022-09-29T23:45:36.510Z,96606.78
2022-09-29T23:47:46.210Z,96606.81
2022-09-29T23:49:54.445Z,96610.59
2022-09-29T23:52:05.119Z,96608.72
2022-09-29T23:54:18.337Z,96608.06
2022-09-29T23:56:26.713Z,96614.00
2022-09-29T23:58:34.954Z,96615.25
